sensor_id;sensor_type;location;lat;lon;timestamp;temperature;humidity
53880;DHT22;39791;53.184;5.486;2023-05-10T00:00:13;14.60;99.90
53880;DHT22;39791;53.184;5.486;2023-05-10T00:02:39;15.70;99.90
53880;DHT22;39791;53.184;5.486;2023-05-10T00:05:05;14.50;99.90
53880;DHT22;39791;53.184;5.486;2023-05-10T00:07:30;15.60;99.90
53880;DHT22;39791;53.184;5.486;2023-05-10T00:09:56;15.90;99.90
53880;DHT22;39791;53.184;5.486;2023-05-10T00:12:21;14.30;99.90
53880;DHT22;39791;53.184;5.486;2023-05-10T00:14:47;14.70;99.90
53880;DHT22;39791;53.184;5.486;2023-05-10T00:17:13;14.20;99.90
53880;DHT22;39791;53.184;5.486;2023-05-10T00:19:39;14.10;99.90
53880;DHT22;39791;53.184;5.486;2023-05-10T00:22:05;14.30;99.90
53880;DHT22;39791;53.184;5.486;2023-05-10T00:24:30;14.40;99.90
53880;DHT22;39791;53.184;5.486;2023-05-10T00:26:56;16.00;99.90
53880;DHT22;39791;53.184;5.486;2023-05-10T00:29:21;14.30;99.90
53880;DHT22;39791;53.184;5.486;2023-05-10T00:31:47;15.30;99.90
53880;DHT22;39791;53.184;5.486;2023-05-10T00:34:12;15.30;99.90
53880;DHT22;39791;53.184;5.486;2023-05-10T00:36:38;16.00;99.90
53880;DHT22;39791;53.184;5.486;2023-05-10T00:39:03;15.00;99.90
53880;DHT22;39791;53.184;5.486;2023-05-10T00:41:30;14.20;99.90
53880;DHT22;39791;53.184;5.486;2023-05-10T00:43:58;15.90;99.90
53880;DHT22;39791;53.184;5.486;2023-05-10T00:46:24;14.30;99.90
53880;DHT22;39791;53.184;5.486;2023-05-10T00:48:50;15.70;99.90
53880;DHT22;39791;53.184;5.486;2023-05-10T00:51:16;14.40;99.90
53880;DHT22;39791;53.184;5.486;2023-05-10T00:53:41;15.60;99.90
53880;DHT22;39791;53.184;5.486;2023-05-10T00:56:08;15.90;99.90
53880;DHT22;39791;53.184;5.486;2023-05-10T00:58:33;16.00;99.90
53880;DHT22;39791;53.184;5.486;2023-05-10T01:00:59;15.70;99.90
53880;DHT22;39791;53.184;5.486;2023-05-10T01:03:26;16.10;99.90
53880;DHT22;39791;53.184;5.486;2023-05-10T01:05:51;15.70;99.90
53880;DHT22;39791;53.184;5.486;2023-05-10T01:08:17;14.80;99.90
53880;DHT22;39791;53.184;5.486;2023-05-10T01:10:43;16.20;99.90
53880;DHT22;39791;53.184;5.486;2023-05-10T01:13:09;14.80;99.90
53880;DHT22;39791;53.184;5.486;2023-05-10T01:15:36;15.60;99.90
53880;DHT22;39791;53.184;5.486;2023-05-10T01:18:02;16.00;99.90
53880;DHT22;39791;53.184;5.486;2023-05-10T01:20:32;14.00;99.90
53880;DHT22;39791;53.184;5.486;2023-05-10T01:23:44;15.70;99.90
53880;DHT22;39791;53.184;5.486;2023-05-10T01:26:49;14.80;99.90
53880;DHT22;39791;53.184;5.486;2023-05-10T01:32:30;14.10;99.90
53880;DHT22;39791;53.184;5.486;2023-05-10T01:35:10;14.60;99.90
53880;DHT22;39791;53.184;5.486;2023-05-10T01:37:47;15.70;99.90
53880;DHT22;39791;53.184;5.486;2023-05-10T01:40:54;15.40;99.90
53880;DHT22;39791;53.184;5.486;2023-05-10T01:43:29;14.10;99.90
53880;DHT22;39791;53.184;5.486;2023-05-10T01:46:03;16.70;99.90
53880;DHT22;39791;53.184;5.486;2023-05-10T01:48:40;14.60;99.90
53880;DHT22;39791;53.184;5.486;2023-05-10T01:51:07;16.00;99.90
53880;DHT22;39791;53.184;5.486;2023-05-10T01:53:35;15.50;99.90
53880;DHT22;39791;53.184;5.486;2023-05-10T01:56:03;14.00;99.90
53880;DHT22;39791;53.184;5.486;2023-05-10T01:58:31;14.30;99.90
53880;DHT22;39791;53.184;5.486;2023-05-10T02:01:00;14.50;99.90
53880;DHT22;39791;53.184;5.486;2023-05-10T02:03:27;15.40;99.90
53880;DHT22;39791;53.184;5.486;2023-05-10T02:05:54;14.10;99.90
53880;DHT22;39791;53.184;5.486;2023-05-10T02:08:22;16.10;99.90
53880;DHT22;39791;53.184;5.486;2023-05-10T02:10:51;14.10;99.90
53880;DHT22;39791;53.184;5.486;2023-05-10T02:13:18;15.00;99.90
53880;DHT22;39791;53.184;5.486;2023-05-10T02:15:46;15.70;99.90
53880;DHT22;39791;53.184;5.486;2023-05-10T02:18:13;15.20;99.90
53880;DHT22;39791;53.184;5.486;2023-05-10T02:20:40;14.40;99.90
53880;DHT22;39791;53.184;5.486;2023-05-10T02:23:08;14.70;99.90
53880;DHT22;39791;53.184;5.486;2023-05-10T02:25:35;14.90;99.90
53880;DHT22;39791;53.184;5.486;2023-05-10T02:28:05;15.90;99.90
53880;DHT22;39791;53.184;5.486;2023-05-10T02:30:32;16.00;99.90
53880;DHT22;39791;53.184;5.486;2023-05-10T02:32:58;14.40;99.90
53880;DHT22;39791;53.184;5.486;2023-05-10T02:35:26;15.20;99.90
53880;DHT22;39791;53.184;5.486;2023-05-10T02:37:53;14.20;99.90
53880;DHT22;39791;53.184;5.486;2023-05-10T02:40:21;14.90;99.90
53880;DHT22;39791;53.184;5.486;2023-05-10T02:42:48;14.40;99.90
53880;DHT22;39791;53.184;5.486;2023-05-10T02:45:21;14.50;99.90
53880;DHT22;39791;53.184;5.486;2023-05-10T02:47:48;14.70;99.90
53880;DHT22;39791;53.184;5.486;2023-05-10T02:50:14;15.90;99.90
53880;DHT22;39791;53.184;5.486;2023-05-10T02:52:44;15.90;99.90
53880;DHT22;39791;53.184;5.486;2023-05-10T02:55:13;14.20;99.90
53880;DHT22;39791;53.184;5.486;2023-05-10T02:57:48;14.70;99.90
53880;DHT22;39791;53.184;5.486;2023-05-10T03:00:16;16.50;99.90
53880;DHT22;39791;53.184;5.486;2023-05-10T03:02:41;15.00;99.90
53880;DHT22;39791;53.184;5.486;2023-05-10T03:05:07;14.90;99.90
53880;DHT22;39791;53.184;5.486;2023-05-10T03:07:33;14.50;99.90
53880;DHT22;39791;53.184;5.486;2023-05-10T03:09:59;16.30;99.90
53880;DHT22;39791;53.184;5.486;2023-05-10T03:18:12;15.70;99.90
53880;DHT22;39791;53.184;5.486;2023-05-10T03:20:48;15.60;99.90
53880;DHT22;39791;53.184;5.486;2023-05-10T03:23:21;16.00;99.90
53880;DHT22;39791;53.184;5.486;2023-05-10T03:25:48;14.70;99.90
53880;DHT22;39791;53.184;5.486;2023-05-10T03:28:15;14.80;99.90
53880;DHT22;39791;53.184;5.486;2023-05-10T03:30:43;16.40;99.90
53880;DHT22;39791;53.184;5.486;2023-05-10T03:33:08;16.40;99.90
53880;DHT22;39791;53.184;5.486;2023-05-10T03:35:34;15.20;99.90
53880;DHT22;39791;53.184;5.486;2023-05-10T03:38:00;16.60;99.90
53880;DHT22;39791;53.184;5.486;2023-05-10T03:40:27;14.40;99.90
53880;DHT22;39791;53.184;5.486;2023-05-10T03:42:55;15.40;99.90
53880;DHT22;39791;53.184;5.486;2023-05-10T03:45:20;16.30;99.90
53880;DHT22;39791;53.184;5.486;2023-05-10T03:47:46;16.40;99.90
53880;DHT22;39791;53.184;5.486;2023-05-10T03:50:11;14.70;99.90
53880;DHT22;39791;53.184;5.486;2023-05-10T03:52:37;14.40;99.90
53880;DHT22;39791;53.184;5.486;2023-05-10T03:55:05;15.00;99.90
53880;DHT22;39791;53.184;5.486;2023-05-10T03:57:30;16.00;99.90
53880;DHT22;39791;53.184;5.486;2023-05-10T03:59:56;16.40;99.90
53880;DHT22;39791;53.184;5.486;2023-05-10T04:02:22;16.70;99.90
53880;DHT22;39791;53.184;5.486;2023-05-10T04:04:47;15.10;99.90
53880;DHT22;39791;53.184;5.486;2023-05-10T04:07:13;14.40;99.90
53880;DHT22;39791;53.184;5.486;2023-05-10T04:09:39;15.10;99.90
53880;DHT22;39791;53.184;5.486;2023-05-10T04:12:05;16.10;99.90
53880;DHT22;39791;53.184;5.486;2023-05-10T04:14:31;15.10;99.90
53880;DHT22;39791;53.184;5.486;2023-05-10T04:16:56;16.30;99.90
53880;DHT22;39791;53.184;5.486;2023-05-10T04:19:22;15.30;99.90
53880;DHT22;39791;53.184;5.486;2023-05-10T04:21:47;15.90;99.90
53880;DHT22;39791;53.184;5.486;2023-05-10T04:24:13;16.30;99.90
53880;DHT22;39791;53.184;5.486;2023-05-10T04:26:39;16.10;99.90
53880;DHT22;39791;53.184;5.486;2023-05-10T04:29:04;14.50;99.90
53880;DHT22;39791;53.184;5.486;2023-05-10T04:31:30;14.70;99.90
53880;DHT22;39791;53.184;5.486;2023-05-10T04:33:56;14.50;99.90
53880;DHT22;39791;53.184;5.486;2023-05-10T04:36:21;15.50;99.90
53880;DHT22;39791;53.184;5.486;2023-05-10T04:38:47;16.20;99.90
53880;DHT22;39791;53.184;5.486;2023-05-10T04:41:12;16.70;99.90
53880;DHT22;39791;53.184;5.486;2023-05-10T04:43:38;14.40;99.90
53880;DHT22;39791;53.184;5.486;2023-05-10T04:46:04;17.10;99.90
53880;DHT22;39791;53.184;5.486;2023-05-10T04:48:30;15.80;99.90
53880;DHT22;39791;53.184;5.486;2023-05-10T04:50:55;14.50;99.90
53880;DHT22;39791;53.184;5.486;2023-05-10T04:53:21;14.50;99.90
53880;DHT22;39791;53.184;5.486;2023-05-10T04:55:47;16.60;99.90
53880;DHT22;39791;53.184;5.486;2023-05-10T04:58:13;14.60;99.90
53880;DHT22;39791;53.184;5.486;2023-05-10T05:00:39;16.60;99.90
53880;DHT22;39791;53.184;5.486;2023-05-10T05:03:04;16.70;99.90
53880;DHT22;39791;53.184;5.486;2023-05-10T05:05:30;15.00;99.90
53880;DHT22;39791;53.184;5.486;2023-05-10T05:07:56;15.20;99.90
53880;DHT22;39791;53.184;5.486;2023-05-10T05:10:21;14.70;99.90
53880;DHT22;39791;53.184;5.486;2023-05-10T05:12:47;16.10;99.90
53880;DHT22;39791;53.184;5.486;2023-05-10T05:15:12;16.30;99.90
53880;DHT22;39791;53.184;5.486;2023-05-10T05:17:38;14.50;99.90
53880;DHT22;39791;53.184;5.486;2023-05-10T05:20:04;14.80;99.90
53880;DHT22;39791;53.184;5.486;2023-05-10T05:22:30;15.80;99.90
53880;DHT22;39791;53.184;5.486;2023-05-10T05:24:56;16.70;99.90
53880;DHT22;39791;53.184;5.486;2023-05-10T05:27:23;15.40;99.90
53880;DHT22;39791;53.184;5.486;2023-05-10T05:29:53;15.10;99.90
53880;DHT22;39791;53.184;5.486;2023-05-10T05:32:18;16.80;99.90
53880;DHT22;39791;53.184;5.486;2023-05-10T05:34:45;14.90;99.90
53880;DHT22;39791;53.184;5.486;2023-05-10T05:37:18;14.90;99.90
53880;DHT22;39791;53.184;5.486;2023-05-10T05:39:44;16.40;99.90
53880;DHT22;39791;53.184;5.486;2023-05-10T05:42:11;14.90;99.90
53880;DHT22;39791;53.184;5.486;2023-05-10T05:44:37;14.80;99.90
53880;DHT22;39791;53.184;5.486;2023-05-10T05:47:02;15.90;99.90
53880;DHT22;39791;53.184;5.486;2023-05-10T05:49:28;16.00;99.90
53880;DHT22;39791;53.184;5.486;2023-05-10T05:51:54;14.60;99.90
53880;DHT22;39791;53.184;5.486;2023-05-10T05:54:20;14.80;99.90
53880;DHT22;39791;53.184;5.486;2023-05-10T05:56:45;14.60;99.90
53880;DHT22;39791;53.184;5.486;2023-05-10T05:59:11;14.80;99.90
53880;DHT22;39791;53.184;5.486;2023-05-10T06:01:37;15.50;99.90
53880;DHT22;39791;53.184;5.486;2023-05-10T06:04:02;16.20;99.90
53880;DHT22;39791;53.184;5.486;2023-05-10T06:06:28;14.70;99.90
53880;DHT22;39791;53.184;5.486;2023-05-10T06:08:53;16.20;99.90
53880;DHT22;39791;53.184;5.486;2023-05-10T06:11:19;16.20;99.90
53880;DHT22;39791;53.184;5.486;2023-05-10T06:13:46;15.90;99.90
53880;DHT22;39791;53.184;5.486;2023-05-10T06:16:12;14.60;99.90
53880;DHT22;39791;53.184;5.486;2023-05-10T06:18:38;14.60;99.90
53880;DHT22;39791;53.184;5.486;2023-05-10T06:21:04;16.40;99.90
53880;DHT22;39791;53.184;5.486;2023-05-10T06:23:29;15.40;99.90
53880;DHT22;39791;53.184;5.486;2023-05-10T06:25:55;15.00;99.90
53880;DHT22;39791;53.184;5.486;2023-05-10T06:28:20;16.20;99.90
53880;DHT22;39791;53.184;5.486;2023-05-10T06:30:46;15.20;99.90
53880;DHT22;39791;53.184;5.486;2023-05-10T06:33:12;14.60;99.90
53880;DHT22;39791;53.184;5.486;2023-05-10T06:35:37;16.90;99.90
53880;DHT22;39791;53.184;5.486;2023-05-10T06:38:04;16.20;99.90
53880;DHT22;39791;53.184;5.486;2023-05-10T06:40:30;16.90;99.90
53880;DHT22;39791;53.184;5.486;2023-05-10T06:42:55;16.70;99.90
53880;DHT22;39791;53.184;5.486;2023-05-10T06:45:21;14.70;99.90
53880;DHT22;39791;53.184;5.486;2023-05-10T06:47:46;16.40;99.90
53880;DHT22;39791;53.184;5.486;2023-05-10T06:50:12;14.70;99.90
53880;DHT22;39791;53.184;5.486;2023-05-10T06:52:38;16.60;99.90
53880;DHT22;39791;53.184;5.486;2023-05-10T06:55:05;15.70;99.90
53880;DHT22;39791;53.184;5.486;2023-05-10T06:57:31;16.40;99.90
53880;DHT22;39791;53.184;5.486;2023-05-10T06:59:58;15.30;99.90
53880;DHT22;39791;53.184;5.486;2023-05-10T07:02:24;17.20;99.90
53880;DHT22;39791;53.184;5.486;2023-05-10T07:04:49;15.40;99.90
53880;DHT22;39791;53.184;5.486;2023-05-10T07:07:17;15.30;99.90
53880;DHT22;39791;53.184;5.486;2023-05-10T07:09:42;15.60;99.90
53880;DHT22;39791;53.184;5.486;2023-05-10T07:12:08;15.00;99.90
53880;DHT22;39791;53.184;5.486;2023-05-10T07:14:33;15.40;99.90
53880;DHT22;39791;53.184;5.486;2023-05-10T07:16:59;16.10;99.90
53880;DHT22;39791;53.184;5.486;2023-05-10T07:19:24;15.40;99.90
53880;DHT22;39791;53.184;5.486;2023-05-10T07:21:50;17.40;99.90
53880;DHT22;39791;53.184;5.486;2023-05-10T07:24:16;16.70;99.90
53880;DHT22;39791;53.184;5.486;2023-05-10T07:26:41;15.30;99.90
53880;DHT22;39791;53.184;5.486;2023-05-10T07:29:07;17.60;99.90
53880;DHT22;39791;53.184;5.486;2023-05-10T07:31:32;15.50;99.90
53880;DHT22;39791;53.184;5.486;2023-05-10T07:33:58;15.50;99.90
53880;DHT22;39791;53.184;5.486;2023-05-10T07:36:24;17.40;99.90
53880;DHT22;39791;53.184;5.486;2023-05-10T07:38:49;18.00;99.90
53880;DHT22;39791;53.184;5.486;2023-05-10T07:41:15;16.90;99.90
53880;DHT22;39791;53.184;5.486;2023-05-10T07:43:40;16.30;99.90
53880;DHT22;39791;53.184;5.486;2023-05-10T07:46:06;16.20;99.90
53880;DHT22;39791;53.184;5.486;2023-05-10T07:48:33;17.90;99.90
53880;DHT22;39791;53.184;5.486;2023-05-10T07:50:58;17.50;99.90
53880;DHT22;39791;53.184;5.486;2023-05-10T07:53:26;16.60;99.90
53880;DHT22;39791;53.184;5.486;2023-05-10T07:55:54;15.90;99.90
53880;DHT22;39791;53.184;5.486;2023-05-10T07:58:22;15.80;99.90
53880;DHT22;39791;53.184;5.486;2023-05-10T08:00:47;18.30;99.90
53880;DHT22;39791;53.184;5.486;2023-05-10T08:03:14;16.40;99.90
53880;DHT22;39791;53.184;5.486;2023-05-10T08:05:40;17.40;99.90
53880;DHT22;39791;53.184;5.486;2023-05-10T08:08:06;16.80;99.90
53880;DHT22;39791;53.184;5.486;2023-05-10T08:10:32;15.70;99.90
53880;DHT22;39791;53.184;5.486;2023-05-10T08:12:57;18.00;99.90
53880;DHT22;39791;53.184;5.486;2023-05-10T08:15:24;17.70;99.90
53880;DHT22;39791;53.184;5.486;2023-05-10T08:17:51;17.60;99.90
53880;DHT22;39791;53.184;5.486;2023-05-10T08:20:16;17.40;99.90
53880;DHT22;39791;53.184;5.486;2023-05-10T08:22:45;16.80;99.90
53880;DHT22;39791;53.184;5.486;2023-05-10T08:25:10;15.80;99.90
53880;DHT22;39791;53.184;5.486;2023-05-10T08:27:36;16.10;99.90
53880;DHT22;39791;53.184;5.486;2023-05-10T08:30:01;17.00;99.90
53880;DHT22;39791;53.184;5.486;2023-05-10T08:32:27;17.90;99.90
53880;DHT22;39791;53.184;5.486;2023-05-10T08:34:53;18.10;99.90
53880;DHT22;39791;53.184;5.486;2023-05-10T08:37:18;17.80;99.90
53880;DHT22;39791;53.184;5.486;2023-05-10T08:39:44;16.20;99.90
53880;DHT22;39791;53.184;5.486;2023-05-10T08:42:16;16.50;99.90
53880;DHT22;39791;53.184;5.486;2023-05-10T08:44:45;18.10;99.90
53880;DHT22;39791;53.184;5.486;2023-05-10T08:47:12;18.10;99.90
53880;DHT22;39791;53.184;5.486;2023-05-10T08:49:40;16.10;99.90
53880;DHT22;39791;53.184;5.486;2023-05-10T08:52:07;17.30;99.90
53880;DHT22;39791;53.184;5.486;2023-05-10T08:54:33;16.50;99.90
53880;DHT22;39791;53.184;5.486;2023-05-10T08:56:59;17.60;99.90
53880;DHT22;39791;53.184;5.486;2023-05-10T08:59:25;17.10;99.90
53880;DHT22;39791;53.184;5.486;2023-05-10T09:01:51;16.70;99.90
53880;DHT22;39791;53.184;5.486;2023-05-10T09:04:19;16.70;99.90
53880;DHT22;39791;53.184;5.486;2023-05-10T09:06:44;18.30;99.90
53880;DHT22;39791;53.184;5.486;2023-05-10T09:09:10;16.30;99.90
53880;DHT22;39791;53.184;5.486;2023-05-10T09:11:36;16.70;99.90
53880;DHT22;39791;53.184;5.486;2023-05-10T09:14:02;16.70;99.90
53880;DHT22;39791;53.184;5.486;2023-05-10T09:16:28;17.80;99.90
53880;DHT22;39791;53.184;5.486;2023-05-10T09:18:53;16.20;99.90
53880;DHT22;39791;53.184;5.486;2023-05-10T09:21:19;17.70;99.90
53880;DHT22;39791;53.184;5.486;2023-05-10T09:23:47;17.90;99.90
53880;DHT22;39791;53.184;5.486;2023-05-10T09:26:12;16.40;99.90
53880;DHT22;39791;53.184;5.486;2023-05-10T09:28:58;18.10;99.90
53880;DHT22;39791;53.184;5.486;2023-05-10T09:31:24;17.60;99.90
53880;DHT22;39791;53.184;5.486;2023-05-10T09:33:53;17.80;99.90
53880;DHT22;39791;53.184;5.486;2023-05-10T09:36:19;16.80;99.90
53880;DHT22;39791;53.184;5.486;2023-05-10T09:38:46;16.40;99.90
53880;DHT22;39791;53.184;5.486;2023-05-10T09:41:23;16.60;99.90
53880;DHT22;39791;53.184;5.486;2023-05-10T09:43:49;18.70;99.90
53880;DHT22;39791;53.184;5.486;2023-05-10T09:46:16;17.60;99.90
53880;DHT22;39791;53.184;5.486;2023-05-10T09:48:46;19.80;99.90
53880;DHT22;39791;53.184;5.486;2023-05-10T09:51:25;18.50;99.90
53880;DHT22;39791;53.184;5.486;2023-05-10T09:54:15;17.00;99.90
53880;DHT22;39791;53.184;5.486;2023-05-10T09:56:41;17.40;99.90
53880;DHT22;39791;53.184;5.486;2023-05-10T09:59:11;18.80;99.90
53880;DHT22;39791;53.184;5.486;2023-05-10T10:01:38;18.30;99.90
53880;DHT22;39791;53.184;5.486;2023-05-10T10:04:05;17.10;99.90
53880;DHT22;39791;53.184;5.486;2023-05-10T10:06:35;17.10;99.90
53880;DHT22;39791;53.184;5.486;2023-05-10T10:09:02;18.30;99.90
53880;DHT22;39791;53.184;5.486;2023-05-10T10:11:28;18.70;99.90
53880;DHT22;39791;53.184;5.486;2023-05-10T10:13:54;17.00;99.90
53880;DHT22;39791;53.184;5.486;2023-05-10T10:16:20;19.20;99.90
53880;DHT22;39791;53.184;5.486;2023-05-10T10:18:47;19.00;99.90
53880;DHT22;39791;53.184;5.486;2023-05-10T10:21:13;18.10;99.90
53880;DHT22;39791;53.184;5.486;2023-05-10T10:23:40;17.30;99.90
53880;DHT22;39791;53.184;5.486;2023-05-10T10:26:06;17.90;99.90
53880;DHT22;39791;53.184;5.486;2023-05-10T10:28:48;19.00;99.90
53880;DHT22;39791;53.184;5.486;2023-05-10T10:33:56;17.10;99.90
53880;DHT22;39791;53.184;5.486;2023-05-10T10:36:24;17.20;99.90
53880;DHT22;39791;53.184;5.486;2023-05-10T10:38:58;19.00;99.90
53880;DHT22;39791;53.184;5.486;2023-05-10T10:41:36;18.60;99.90
53880;DHT22;39791;53.184;5.486;2023-05-10T10:46:59;18.90;99.90
53880;DHT22;39791;53.184;5.486;2023-05-10T10:49:31;18.10;99.90
53880;DHT22;39791;53.184;5.486;2023-05-10T10:52:23;18.20;99.90
53880;DHT22;39791;53.184;5.486;2023-05-10T10:57:27;18.70;99.90
53880;DHT22;39791;53.184;5.486;2023-05-10T11:00:18;17.60;99.90
53880;DHT22;39791;53.184;5.486;2023-05-10T11:02:44;17.50;99.90
53880;DHT22;39791;53.184;5.486;2023-05-10T11:05:48;17.80;99.90
53880;DHT22;39791;53.184;5.486;2023-05-10T11:08:27;18.70;99.90
53880;DHT22;39791;53.184;5.486;2023-05-10T11:16:10;17.60;99.90
53880;DHT22;39791;53.184;5.486;2023-05-10T11:18:37;18.20;99.90
53880;DHT22;39791;53.184;5.486;2023-05-10T11:21:03;18.50;99.90
53880;DHT22;39791;53.184;5.486;2023-05-10T11:23:57;17.70;99.90
53880;DHT22;39791;53.184;5.486;2023-05-10T11:26:34;18.90;99.90
53880;DHT22;39791;53.184;5.486;2023-05-10T11:29:00;17.80;99.90
53880;DHT22;39791;53.184;5.486;2023-05-10T11:31:28;18.40;99.90
53880;DHT22;39791;53.184;5.486;2023-05-10T11:33:55;18.10;99.90
53880;DHT22;39791;53.184;5.486;2023-05-10T11:36:25;19.20;99.90
53880;DHT22;39791;53.184;5.486;2023-05-10T11:38:51;19.20;99.90
53880;DHT22;39791;53.184;5.486;2023-05-10T11:41:18;18.10;99.90
53880;DHT22;39791;53.184;5.486;2023-05-10T11:43:46;18.50;99.90
53880;DHT22;39791;53.184;5.486;2023-05-10T11:46:13;17.80;99.90
53880;DHT22;39791;53.184;5.486;2023-05-10T11:48:39;18.50;99.90
53880;DHT22;39791;53.184;5.486;2023-05-10T11:51:05;19.20;99.90
53880;DHT22;39791;53.184;5.486;2023-05-10T11:53:32;18.70;99.90
53880;DHT22;39791;53.184;5.486;2023-05-10T11:56:07;17.90;99.90
53880;DHT22;39791;53.184;5.486;2023-05-10T11:58:34;18.40;99.90
53880;DHT22;39791;53.184;5.486;2023-05-10T12:01:00;19.00;99.90
53880;DHT22;39791;53.184;5.486;2023-05-10T12:03:29;18.90;99.90
53880;DHT22;39791;53.184;5.486;2023-05-10T12:05:56;18.90;99.90
53880;DHT22;39791;53.184;5.486;2023-05-10T12:08:24;19.10;99.90
53880;DHT22;39791;53.184;5.486;2023-05-10T12:10:50;17.90;99.90
53880;DHT22;39791;53.184;5.486;2023-05-10T12:13:17;18.40;99.90
53880;DHT22;39791;53.184;5.486;2023-05-10T12:15:43;18.70;99.90
53880;DHT22;39791;53.184;5.486;2023-05-10T12:18:09;19.30;99.90
53880;DHT22;39791;53.184;5.486;2023-05-10T12:20:36;19.20;99.90
53880;DHT22;39791;53.184;5.486;2023-05-10T12:23:02;19.50;99.90
53880;DHT22;39791;53.184;5.486;2023-05-10T12:25:33;19.60;99.90
53880;DHT22;39791;53.184;5.486;2023-05-10T12:27:59;19.60;99.90
53880;DHT22;39791;53.184;5.486;2023-05-10T12:30:30;18.90;99.90
53880;DHT22;39791;53.184;5.486;2023-05-10T12:33:08;18.70;99.90
53880;DHT22;39791;53.184;5.486;2023-05-10T12:35:49;20.00;99.90
53880;DHT22;39791;53.184;5.486;2023-05-10T12:38:36;19.50;99.90
53880;DHT22;39791;53.184;5.486;2023-05-10T12:41:04;18.80;99.90
53880;DHT22;39791;53.184;5.486;2023-05-10T12:43:31;19.20;99.90
53880;DHT22;39791;53.184;5.486;2023-05-10T12:45:57;19.30;99.90
53880;DHT22;39791;53.184;5.486;2023-05-10T12:48:22;19.90;99.90
53880;DHT22;39791;53.184;5.486;2023-05-10T12:50:48;19.70;99.90
53880;DHT22;39791;53.184;5.486;2023-05-10T12:53:14;19.20;99.90
53880;DHT22;39791;53.184;5.486;2023-05-10T12:55:44;19.00;99.90
53880;DHT22;39791;53.184;5.486;2023-05-10T12:58:10;19.40;99.90
53880;DHT22;39791;53.184;5.486;2023-05-10T13:00:35;19.20;99.90
53880;DHT22;39791;53.184;5.486;2023-05-10T13:03:04;19.20;99.90
53880;DHT22;39791;53.184;5.486;2023-05-10T13:05:34;19.40;99.90
53880;DHT22;39791;53.184;5.486;2023-05-10T13:07:59;18.60;99.90
53880;DHT22;39791;53.184;5.486;2023-05-10T13:10:25;19.30;99.90
53880;DHT22;39791;53.184;5.486;2023-05-10T13:12:51;18.20;99.90
53880;DHT22;39791;53.184;5.486;2023-05-10T13:15:16;18.70;99.90
53880;DHT22;39791;53.184;5.486;2023-05-10T13:17:42;18.80;99.90
53880;DHT22;39791;53.184;5.486;2023-05-10T13:20:08;18.70;99.90
53880;DHT22;39791;53.184;5.486;2023-05-10T13:22:37;18.80;99.90
53880;DHT22;39791;53.184;5.486;2023-05-10T13:25:03;18.00;99.90
53880;DHT22;39791;53.184;5.486;2023-05-10T13:27:28;18.60;99.90
53880;DHT22;39791;53.184;5.486;2023-05-10T13:29:54;18.30;99.90
53880;DHT22;39791;53.184;5.486;2023-05-10T13:32:20;18.30;99.90
53880;DHT22;39791;53.184;5.486;2023-05-10T13:34:46;18.60;99.90
53880;DHT22;39791;53.184;5.486;2023-05-10T13:37:11;18.60;99.90
53880;DHT22;39791;53.184;5.486;2023-05-10T13:39:37;18.70;99.90
53880;DHT22;39791;53.184;5.486;2023-05-10T13:42:03;18.00;99.90
53880;DHT22;39791;53.184;5.486;2023-05-10T13:44:29;18.30;99.90
53880;DHT22;39791;53.184;5.486;2023-05-10T13:46:56;18.50;99.90
53880;DHT22;39791;53.184;5.486;2023-05-10T13:49:21;18.60;99.90
53880;DHT22;39791;53.184;5.486;2023-05-10T13:51:47;18.30;99.90
53880;DHT22;39791;53.184;5.486;2023-05-10T13:54:13;18.30;99.90
53880;DHT22;39791;53.184;5.486;2023-05-10T13:56:39;18.30;99.90
53880;DHT22;39791;53.184;5.486;2023-05-10T13:59:06;17.90;99.90
53880;DHT22;39791;53.184;5.486;2023-05-10T14:01:33;18.30;99.90
53880;DHT22;39791;53.184;5.486;2023-05-10T14:03:59;18.70;99.90
53880;DHT22;39791;53.184;5.486;2023-05-10T14:06:24;17.50;99.90
53880;DHT22;39791;53.184;5.486;2023-05-10T14:08:50;18.00;99.90
53880;DHT22;39791;53.184;5.486;2023-05-10T14:11:15;17.10;99.90
53880;DHT22;39791;53.184;5.486;2023-05-10T14:13:41;17.70;99.90
53880;DHT22;39791;53.184;5.486;2023-05-10T14:16:07;17.70;99.90
53880;DHT22;39791;53.184;5.486;2023-05-10T14:18:32;17.40;99.90
53880;DHT22;39791;53.184;5.486;2023-05-10T14:20:58;17.10;99.90
53880;DHT22;39791;53.184;5.486;2023-05-10T14:23:23;17.70;99.90
53880;DHT22;39791;53.184;5.486;2023-05-10T14:25:52;18.10;99.90
53880;DHT22;39791;53.184;5.486;2023-05-10T14:28:18;17.70;99.90
53880;DHT22;39791;53.184;5.486;2023-05-10T14:30:44;17.70;99.90
53880;DHT22;39791;53.184;5.486;2023-05-10T14:33:10;16.60;99.90
53880;DHT22;39791;53.184;5.486;2023-05-10T14:35:36;17.50;99.90
53880;DHT22;39791;53.184;5.486;2023-05-10T14:38:04;16.90;99.90
53880;DHT22;39791;53.184;5.486;2023-05-10T14:40:30;17.60;99.90
53880;DHT22;39791;53.184;5.486;2023-05-10T14:42:56;16.90;99.90
53880;DHT22;39791;53.184;5.486;2023-05-10T14:45:22;17.20;99.90
53880;DHT22;39791;53.184;5.486;2023-05-10T14:47:48;16.90;99.90
53880;DHT22;39791;53.184;5.486;2023-05-10T14:50:14;17.60;99.90
53880;DHT22;39791;53.184;5.486;2023-05-10T14:52:40;16.70;99.90
53880;DHT22;39791;53.184;5.486;2023-05-10T14:55:06;17.20;99.90
53880;DHT22;39791;53.184;5.486;2023-05-10T14:57:32;16.90;99.90
53880;DHT22;39791;53.184;5.486;2023-05-10T14:59:58;16.90;99.90
53880;DHT22;39791;53.184;5.486;2023-05-10T15:02:24;17.70;99.90
53880;DHT22;39791;53.184;5.486;2023-05-10T15:04:50;17.10;99.90
53880;DHT22;39791;53.184;5.486;2023-05-10T15:07:16;17.60;99.90
53880;DHT22;39791;53.184;5.486;2023-05-10T15:09:46;17.10;99.90
53880;DHT22;39791;53.184;5.486;2023-05-10T15:12:12;17.10;99.90
53880;DHT22;39791;53.184;5.486;2023-05-10T15:14:37;17.10;99.90
53880;DHT22;39791;53.184;5.486;2023-05-10T15:17:03;17.40;99.90
53880;DHT22;39791;53.184;5.486;2023-05-10T15:19:29;17.60;99.90
53880;DHT22;39791;53.184;5.486;2023-05-10T15:21:55;17.70;99.90
53880;DHT22;39791;53.184;5.486;2023-05-10T15:24:21;17.10;99.90
53880;DHT22;39791;53.184;5.486;2023-05-10T15:26:47;17.10;99.90
53880;DHT22;39791;53.184;5.486;2023-05-10T15:29:13;17.80;99.90
53880;DHT22;39791;53.184;5.486;2023-05-10T15:31:45;17.40;99.90
53880;DHT22;39791;53.184;5.486;2023-05-10T15:34:11;17.10;99.90
53880;DHT22;39791;53.184;5.486;2023-05-10T15:36:36;18.00;99.90
53880;DHT22;39791;53.184;5.486;2023-05-10T15:39:02;17.60;99.90
53880;DHT22;39791;53.184;5.486;2023-05-10T15:41:28;17.90;99.90
53880;DHT22;39791;53.184;5.486;2023-05-10T15:43:55;17.20;99.90
53880;DHT22;39791;53.184;5.486;2023-05-10T15:46:21;17.10;99.90
53880;DHT22;39791;53.184;5.486;2023-05-10T15:48:46;16.70;99.90
53880;DHT22;39791;53.184;5.486;2023-05-10T15:51:12;17.30;99.90
53880;DHT22;39791;53.184;5.486;2023-05-10T15:53:38;17.00;99.90